OANL weather

Nili Airport
Samangan Province, Afghanistan

Public forecast

Using degrees Celsius for public forecast. Weather courtesy of forecast.io.

METAR (pilot weather report)

Closest report is Mazar I Sharif Airport, 51.0 nm (94.4 km) NNW. Retrieved 2019/08/24 22:50 UTC (26 minutes ago):

OAMS 242250Z 20004KT 9999 SKC 27/M05 Q1009 BLU+BLU+

TAF (pilot weather forecast)

Closest forecast is Mazar I Sharif Airport, 51.0 nm (94.4 km) NNW. Retrieved 2019/08/24 18:57 UTC (4 hours ago):

TAF OAMS 241705Z 2418/2518 20006KT 9999 NSW SKC TEMPO 2501/2504 35006KT 6000 NSW SKC BECMG 2502/2504 02009KT 9999 NSW SKC BECMG 2512/2514 20006KT 9999 NSW SKC